Time;durP1;ratioP1;P1;durP2;ratioP2;P2;SDS_P1;SDS_P2;PMS_P1;PMS_P2;Temp;Humidity;BMP_temperature;BMP_pressure;BME280_temperature;BME280_humidity;BME280_pressure;Samples;Min_cycle;Max_cycle;Signal;HPM_P1;HPM_P2
2022/01/02 00:04:19;;;;;;;7.57;5.30;;;;;;;5.05;100.00;97122.22;10463502;28;20667;-76
2022/01/02 00:09:25;;;;;;;12.50;4.93;;;;;;;4.96;100.00;97115.09;10493240;28;20372;-77
2022/01/02 00:14:32;;;;;;;7.67;4.67;;;;;;;5.21;100.00;97103.75;10500138;28;20195;-76
2022/01/02 00:19:38;;;;;;;10.40;4.80;;;;;;;4.95;100.00;97077.13;10482902;28;20651;-77
2022/01/02 00:24:41;;;;;;;8.10;4.53;;;;;;;4.75;100.00;97081.97;10500321;28;20191;-77
2022/01/02 00:29:42;;;;;;;6.57;3.57;;;;;;;4.96;100.00;97068.38;10500456;28;20241;-76
2022/01/02 00:34:43;;;;;;;13.23;4.20;;;;;;;4.95;100.00;97054.56;10499237;28;20241;-76
2022/01/02 00:39:43;;;;;;;5.40;3.70;;;;;;;4.66;100.00;97040.31;10465356;28;20223;-76
2022/01/02 00:44:54;;;;;;;12.87;4.37;;;;;;;4.52;100.00;97044.72;10499592;28;20558;-75
2022/01/02 00:50:15;;;;;;;8.57;4.60;;;;;;;4.62;100.00;97050.06;10481495;28;20234;-76
2022/01/02 00:55:21;;;;;;;6.87;4.20;;;;;;;4.61;100.00;97041.47;10499284;28;20187;-76
2022/01/02 01:00:23;;;;;;;12.77;4.40;;;;;;;4.62;100.00;97034.50;10481435;28;20183;-76
2022/01/02 01:05:27;;;;;;;7.53;4.67;;;;;;;4.42;100.00;97033.34;10480720;28;20690;-76
2022/01/02 01:10:31;;;;;;;4.40;3.80;;;;;;;4.38;100.00;97029.31;10480637;28;20219;-76
2022/01/02 01:15:33;;;;;;;7.97;4.03;;;;;;;4.50;100.00;97033.59;10481007;28;20196;-76
2022/01/02 01:20:38;;;;;;;5.03;3.63;;;;;;;4.56;100.00;97029.75;10479749;28;20239;-76
2022/01/02 01:25:44;;;;;;;6.80;4.67;;;;;;;4.39;100.00;97030.97;10480196;28;20539;-76
2022/01/02 01:30:45;;;;;;;8.67;4.30;;;;;;;4.30;100.00;97040.22;10480347;28;20235;-77
2022/01/02 01:35:45;;;;;;;9.30;3.97;;;;;;;4.20;100.00;97031.47;10456701;28;20235;-77
2022/01/02 01:40:52;;;;;;;12.47;4.90;;;;;;;4.26;100.00;97026.66;10438387;28;20184;-76
2022/01/02 01:45:53;;;;;;;11.70;4.80;;;;;;;4.35;100.00;97009.63;10421775;28;20184;-76
2022/01/02 01:50:54;;;;;;;7.27;4.03;;;;;;;4.72;100.00;97012.13;10437645;28;20586;-76
2022/01/02 01:55:56;;;;;;;9.67;4.63;;;;;;;4.91;100.00;97001.22;10437539;28;20188;-76
2022/01/02 02:00:58;;;;;;;9.13;4.10;;;;;;;4.74;100.00;96984.28;10435750;28;20188;-76
2022/01/02 02:06:08;;;;;;;11.80;4.97;;;;;;;4.76;100.00;96989.38;10435977;28;20189;-76
2022/01/02 02:11:09;;;;;;;7.80;4.33;;;;;;;4.78;100.00;96977.94;10437167;28;20314;-76
2022/01/02 02:16:10;;;;;;;7.13;4.27;;;;;;;4.80;100.00;96968.25;10436775;28;20184;-76
2022/01/02 02:21:10;;;;;;;8.97;4.37;;;;;;;4.88;100.00;96957.31;10436410;28;20241;-76
2022/01/02 02:26:11;;;;;;;6.10;3.90;;;;;;;5.07;100.00;96942.94;10436510;28;20233;-76
2022/01/02 02:31:11;;;;;;;5.70;3.30;;;;;;;5.08;100.00;96942.00;10452064;28;20584;-76
2022/01/02 02:36:11;;;;;;;5.17;2.67;;;;;;;5.11;100.00;96918.41;10462489;28;20223;-76
2022/01/02 02:41:12;;;;;;;6.43;3.53;;;;;;;5.10;100.00;96904.59;10477608;28;20189;-76
2022/01/02 02:51:49;;;;;;;4.03;3.00;;;;;;;4.99;100.00;96878.63;10477005;28;20243;-76
2022/01/02 02:57:03;;;;;;;6.13;3.17;;;;;;;5.18;100.00;96870.25;10477022;28;20195;-76
2022/01/02 03:02:05;;;;;;;5.53;3.30;;;;;;;5.46;100.00;96870.69;10476348;28;20243;-76
2022/01/02 03:07:12;;;;;;;5.77;3.60;;;;;;;5.63;100.00;96893.56;10494525;28;20206;-76
2022/01/02 03:12:13;;;;;;;4.37;2.70;;;;;;;5.74;100.00;96876.28;10476472;28;20221;-75
2022/01/02 03:17:18;;;;;;;6.60;3.13;;;;;;;5.93;100.00;96878.28;10475521;28;20183;-76
2022/01/02 03:22:19;;;;;;;5.60;3.00;;;;;;;6.09;100.00;96868.28;10494438;28;20179;-75
2022/01/02 03:27:19;;;;;;;5.30;3.07;;;;;;;5.99;100.00;96847.41;10494180;28;20226;-76
2022/01/02 03:32:20;;;;;;;3.77;3.23;;;;;;;6.01;100.00;96823.88;10475072;28;20233;-76
2022/01/02 03:37:21;;;;;;;7.33;3.53;;;;;;;5.86;100.00;96805.13;10476035;28;20280;-76
2022/01/02 03:42:23;;;;;;;5.70;3.70;;;;;;;6.22;100.00;96790.91;10474498;28;20190;-75
2022/01/02 03:47:24;;;;;;;5.47;3.10;;;;;;;6.25;100.00;96789.84;10480082;28;20662;-75
2022/01/02 03:52:25;;;;;;;5.97;3.07;;;;;;;6.37;100.00;96803.56;10465501;28;20233;-76
2022/01/02 03:57:25;;;;;;;4.00;3.10;;;;;;;6.63;100.00;96793.59;10483098;28;20183;-76
2022/01/02 04:02:26;;;;;;;5.53;3.43;;;;;;;6.95;100.00;96777.84;10481531;28;20187;-76
2022/01/02 04:07:27;;;;;;;6.73;2.90;;;;;;;6.92;100.00;96793.72;10477711;28;20191;-76
2022/01/02 04:12:27;;;;;;;7.23;3.00;;;;;;;6.91;100.00;96793.84;10475550;28;20302;-76
2022/01/02 04:17:28;;;;;;;3.20;2.57;;;;;;;6.66;100.00;96780.34;10475922;28;20187;-76
2022/01/02 04:22:28;;;;;;;5.20;3.00;;;;;;;5.89;100.00;96781.47;10475090;28;20239;-76
2022/01/02 04:27:29;;;;;;;2.87;2.47;;;;;;;5.85;100.00;96785.25;10475538;28;20187;-76
2022/01/02 04:32:31;;;;;;;6.00;3.40;;;;;;;5.32;100.00;96784.25;10492581;28;20230;-76
2022/01/02 04:37:33;;;;;;;3.47;2.60;;;;;;;5.15;100.00;96802.97;10475205;28;20314;-76
2022/01/02 04:42:33;;;;;;;7.33;3.07;;;;;;;5.02;100.00;96789.28;10474913;28;20270;-76
2022/01/02 04:47:35;;;;;;;3.33;2.73;;;;;;;4.92;100.00;96769.25;10475108;28;20183;-76
2022/01/02 04:52:35;;;;;;;4.03;2.40;;;;;;;5.04;100.00;96764.88;10473903;28;20223;-76
2022/01/02 04:57:36;;;;;;;5.00;2.50;;;;;;;5.71;100.00;96765.59;10472662;28;20179;-76
2022/01/02 05:02:37;;;;;;;4.33;3.00;;;;;;;5.50;100.00;96748.19;10495431;28;20179;-75
2022/01/02 05:07:38;;;;;;;2.33;1.83;;;;;;;5.96;100.00;96745.41;10480668;28;20286;-76
2022/01/02 05:12:39;;;;;;;4.13;1.83;;;;;;;6.34;100.00;96746.59;10480748;28;20215;-76
2022/01/02 05:17:40;;;;;;;1.67;1.57;;;;;;;6.34;100.00;96734.44;10480511;28;20187;-76
2022/01/02 05:22:40;;;;;;;2.63;1.70;;;;;;;6.66;100.00;96730.88;10498394;28;20730;-76
2022/01/02 05:27:41;;;;;;;2.40;1.80;;;;;;;6.91;100.00;96718.34;10480028;28;20179;-76
2022/01/02 05:32:41;;;;;;;2.97;1.33;;;;;;;7.99;100.00;96709.59;10479130;28;20211;-76
2022/01/02 05:37:42;;;;;;;2.67;1.50;;;;;;;8.27;100.00;96706.22;10502283;28;20318;-75
2022/01/02 05:42:42;;;;;;;4.40;1.50;;;;;;;8.83;100.00;96689.66;10538808;28;20187;-75
2022/01/02 05:47:42;;;;;;;2.90;1.27;;;;;;;9.58;100.00;96665.03;10521429;28;20186;-75
2022/01/02 05:52:43;;;;;;;1.70;1.30;;;;;;;9.37;100.00;96662.75;10520483;28;20309;-75
2022/01/02 05:57:44;;;;;;;1.80;1.20;;;;;;;9.72;100.00;96668.91;10538183;28;20186;-76
2022/01/02 06:02:44;;;;;;;1.33;1.10;;;;;;;9.60;100.00;96663.09;10538775;28;20190;-76
2022/01/02 06:07:46;;;;;;;2.37;1.20;;;;;;;9.60;100.00;96663.09;10518763;28;20187;-76
2022/01/02 06:12:47;;;;;;;1.63;1.30;;;;;;;9.75;100.00;96645.88;10538092;28;20210;-76
2022/01/02 06:17:47;;;;;;;1.10;1.00;;;;;;;9.89;100.00;96649.75;10537668;28;20183;-76
2022/01/02 06:22:50;;;;;;;1.80;1.03;;;;;;;9.91;100.00;96637.31;10502907;28;20553;-77
2022/01/02 06:27:50;;;;;;;1.20;1.00;;;;;;;10.05;99.48;96628.09;10519290;28;20186;-76
2022/01/02 06:32:55;;;;;;;1.23;1.00;;;;;;;9.99;99.58;96642.59;10518509;28;20218;-76
2022/01/02 06:37:56;;;;;;;1.17;1.07;;;;;;;10.02;100.00;96628.41;10518539;28;20320;-76
2022/01/02 06:42:57;;;;;;;1.20;1.10;;;;;;;10.10;98.14;96625.00;10519045;28;20216;-75
2022/01/02 06:47:59;;;;;;;1.20;1.10;;;;;;;10.07;98.54;96633.16;10518548;28;20193;-75
2022/01/02 06:53:00;;;;;;;1.23;1.13;;;;;;;10.02;98.96;96620.53;10518352;28;20289;-75
2022/01/02 06:58:00;;;;;;;2.60;1.30;;;;;;;10.26;96.99;96619.84;10518378;28;20193;-75
2022/01/02 07:03:01;;;;;;;3.07;2.87;;;;;;;10.20;96.49;96617.88;10518414;28;20275;-76
2022/01/02 07:08:01;;;;;;;2.33;1.77;;;;;;;10.12;96.88;96617.81;10518015;28;20654;-76
2022/01/02 07:13:04;;;;;;;2.27;1.23;;;;;;;10.22;95.40;96620.31;10517989;28;20274;-76
2022/01/02 07:18:04;;;;;;;1.60;1.30;;;;;;;10.17;95.14;96623.41;10518090;28;20230;-76
2022/01/02 07:23:05;;;;;;;1.97;1.10;;;;;;;10.24;94.32;96620.97;10534950;28;20190;-76
2022/01/02 07:28:05;;;;;;;1.80;1.30;;;;;;;10.32;92.63;96610.53;10518087;28;20202;-76
2022/01/02 07:33:05;;;;;;;1.50;1.10;;;;;;;10.30;90.51;96615.13;10516827;28;20647;-76
2022/01/02 07:38:06;;;;;;;1.37;1.20;;;;;;;10.50;88.47;96610.47;10535370;28;20230;-76
2022/01/02 07:43:06;;;;;;;1.57;1.10;;;;;;;10.43;88.28;96605.06;10535696;28;20681;-76
2022/01/02 07:48:08;;;;;;;2.00;1.30;;;;;;;10.47;87.24;96608.16;10517216;28;20662;-76
2022/01/02 07:53:08;;;;;;;1.63;1.10;;;;;;;10.71;84.56;96595.16;10535439;28;20336;-76
2022/01/02 07:58:09;;;;;;;1.50;1.17;;;;;;;10.98;82.97;96588.00;10517146;28;20311;-76
2022/01/02 08:03:09;;;;;;;3.47;1.37;;;;;;;11.00;82.26;96580.78;10535097;28;20183;-75
2022/01/02 08:08:09;;;;;;;1.67;1.20;;;;;;;11.05;82.41;96591.59;10534684;28;20688;-75
2022/01/02 08:13:10;;;;;;;1.70;1.00;;;;;;;11.04;82.00;96600.47;10535113;28;20215;-75
2022/01/02 08:18:13;;;;;;;1.87;1.27;;;;;;;11.04;81.50;96587.34;10534258;28;20321;-75
2022/01/02 08:23:14;;;;;;;2.73;1.87;;;;;;;11.05;82.42;96596.03;10534700;28;20583;-75
2022/01/02 08:28:15;;;;;;;1.40;1.13;;;;;;;11.05;81.51;96602.06;10516510;28;20232;-74
2022/01/02 08:33:15;;;;;;;1.27;1.10;;;;;;;11.08;81.52;96598.31;10535992;28;20255;-76
2022/01/02 08:38:16;;;;;;;1.93;1.40;;;;;;;11.13;81.59;96597.84;10541823;28;20226;-77
2022/01/02 08:43:16;;;;;;;1.10;1.00;;;;;;;11.21;80.49;96601.28;10541836;28;20650;-76
2022/01/02 08:48:16;;;;;;;2.13;1.30;;;;;;;11.17;80.91;96609.66;10541459;28;20198;-76
2022/01/02 08:53:17;;;;;;;1.33;1.20;;;;;;;11.06;81.78;96606.34;10541279;28;20249;-76
2022/01/02 08:58:17;;;;;;;1.60;1.30;;;;;;;11.13;81.35;96608.31;10523411;28;20182;-76
2022/01/02 09:03:17;;;;;;;2.77;1.30;;;;;;;11.12;80.98;96606.66;10540918;28;20209;-76
2022/01/02 09:08:18;;;;;;;2.00;1.10;;;;;;;11.18;81.37;96608.66;10540758;28;20612;-76
2022/01/02 09:13:20;;;;;;;5.40;1.37;;;;;;;11.10;81.47;96606.03;10541126;28;20720;-76
2022/01/02 09:18:21;;;;;;;5.70;1.60;;;;;;;10.95;81.86;96588.31;10539582;28;20251;-76
2022/01/02 09:23:21;;;;;;;1.87;1.10;;;;;;;10.98;82.16;96590.63;10539954;28;20179;-76
2022/01/02 09:28:22;;;;;;;4.60;1.80;;;;;;;10.89;82.79;96594.22;10533276;28;20290;-77
2022/01/02 09:33:22;;;;;;;2.87;1.67;;;;;;;11.00;82.59;96580.78;10539414;28;20226;-76
2022/01/02 09:38:22;;;;;;;2.20;1.60;;;;;;;11.02;82.44;96562.28;10539747;28;20241;-77
2022/01/02 09:43:23;;;;;;;4.75;1.80;;;;;;;11.17;82.07;96567.69;10538683;28;20190;-76
2022/01/02 09:48:23;;;;;;;3.33;1.50;;;;;;;11.26;81.75;96573.78;10501820;28;20336;-76
2022/01/02 09:53:24;;;;;;;7.47;3.08;;;;;;;11.25;81.53;96559.81;10536086;28;20222;-76
2022/01/02 09:58:26;;;;;;;3.38;1.45;;;;;;;11.30;81.82;96564.56;10536594;28;20195;-77
2022/01/02 10:03:40;;;;;;;1.63;1.23;;;;;;;11.27;81.51;96552.63;10518085;28;20524;-76
2022/01/02 10:08:41;;;;;;;2.97;1.60;;;;;;;11.38;80.98;96564.59;10518177;28;20278;-76
2022/01/02 10:13:52;;;;;;;5.53;1.73;;;;;;;11.44;80.85;96563.91;10517597;28;20580;-76
2022/01/02 10:18:54;;;;;;;2.70;1.70;;;;;;;11.36;81.24;96571.78;10517215;28;20518;-76
2022/01/02 10:24:12;;;;;;;4.43;2.07;;;;;;;11.30;81.18;96552.28;10517893;28;20191;-76
2022/01/02 10:29:14;;;;;;;5.10;1.87;;;;;;;11.39;82.24;96534.72;10535040;28;20653;-76
2022/01/02 10:34:14;;;;;;;22.53;9.13;;;;;;;11.35;82.27;96530.81;10534558;28;20190;-75
2022/01/02 10:39:18;;;;;;;16.58;6.57;;;;;;;11.62;81.88;96516.47;10517376;28;20313;-76
2022/01/02 10:44:29;;;;;;;16.00;4.53;;;;;;;11.91;81.15;96494.94;10533719;28;20578;-76
2022/01/02 10:49:50;;;;;;;42.45;20.58;;;;;;;12.22;79.95;96488.91;10534753;28;20338;-76
2022/01/02 10:54:51;;;;;;;11.25;4.05;;;;;;;12.51;79.01;96468.19;10533611;28;20244;-75
2022/01/02 10:59:55;;;;;;;27.27;10.23;;;;;;;12.42;79.41;96451.66;10535014;28;20189;-76
2022/01/02 11:05:03;;;;;;;32.88;16.15;;;;;;;12.35;80.20;96461.25;10534857;28;20658;-76
2022/01/02 11:10:04;;;;;;;10.82;4.88;;;;;;;12.29;81.17;96460.13;10534100;28;20238;-77
2022/01/02 11:15:09;;;;;;;8.13;1.95;;;;;;;12.02;82.17;96464.88;10532775;28;20194;-77
2022/01/02 11:20:13;;;;;;;5.15;2.10;;;;;;;11.97;81.65;96438.31;10536267;28;20240;-77
2022/01/02 11:25:24;;;;;;;7.85;2.40;;;;;;;11.86;84.14;96452.59;10536106;28;20189;-77
2022/01/02 11:30:33;;;;;;;5.95;2.63;;;;;;;11.69;84.71;96416.94;10513574;28;20217;-76
2022/01/02 11:35:36;;;;;;;4.63;1.95;;;;;;;11.67;85.19;96416.28;10507293;28;20231;-76
2022/01/02 11:40:43;;;;;;;5.82;2.10;;;;;;;11.67;85.61;96411.03;10483507;28;20195;-76
2022/01/02 11:45:44;;;;;;;9.07;2.13;;;;;;;11.62;87.21;96423.84;10453170;28;20346;-76
2022/01/02 11:50:45;;;;;;;6.75;2.28;;;;;;;11.72;86.82;96379.84;10493269;28;20253;-75
2022/01/02 11:55:49;;;;;;;4.82;2.50;;;;;;;11.34;89.27;96380.50;10475871;28;20183;-76
2022/01/02 12:00:49;;;;;;;6.78;2.22;;;;;;;11.29;91.27;96393.31;10475146;28;20198;-76
2022/01/02 12:06:32;;;;;;;5.20;1.88;;;;;;;11.50;89.60;96386.66;10477041;28;20638;-76
2022/01/02 12:11:37;;;;;;;7.13;2.72;;;;;;;11.57;89.71;96382.38;10494987;28;20234;-76
2022/01/02 12:16:40;;;;;;;8.10;2.15;;;;;;;11.74;89.25;96357.69;10495816;28;20202;-76
2022/01/02 12:22:13;;;;;;;9.15;2.63;;;;;;;11.57;90.31;96349.06;10479087;28;20195;-76
2022/01/02 12:27:16;;;;;;;7.85;2.75;;;;;;;11.58;91.44;96342.03;10500015;28;20543;-76
2022/01/02 12:32:21;;;;;;;8.90;3.58;;;;;;;11.58;90.68;96321.06;10499643;28;20321;-76
2022/01/02 12:37:28;;;;;;;343.65;142.23;;;;;;;11.47;90.89;96298.66;10499753;28;20300;-76
2022/01/02 12:42:28;;;;;;;73.18;37.17;;;;;;;11.59;90.93;96284.16;10499687;28;20205;-76
2022/01/02 12:47:29;;;;;;;19.52;10.02;;;;;;;11.80;89.74;96266.94;10481582;28;20282;-76
2022/01/02 12:52:29;;;;;;;35.67;17.92;;;;;;;11.73;90.34;96245.00;10481901;28;20321;-76
2022/01/02 12:57:29;;;;;;;26.88;13.00;;;;;;;11.90;90.30;96233.41;10498706;28;20190;-76
2022/01/02 13:02:30;;;;;;;10.52;5.25;;;;;;;11.95;90.16;96196.16;10499602;28;20194;-76
2022/01/02 13:07:35;;;;;;;6.03;2.33;;;;;;;11.96;88.82;96187.31;10498485;28;20187;-77
2022/01/02 13:12:37;;;;;;;7.65;2.40;;;;;;;12.01;88.47;96171.03;10498479;28;20215;-77
2022/01/02 13:17:40;;;;;;;6.00;2.20;;;;;;;11.93;87.89;96185.84;10480065;28;20248;-77
2022/01/02 13:22:52;;;;;;;8.32;3.25;;;;;;;11.91;88.81;96234.22;10463475;28;20532;-76
2022/01/02 13:28:00;;;;;;;10.73;3.80;;;;;;;11.93;89.51;96242.78;10498094;28;20233;-76
2022/01/02 13:33:02;;;;;;;10.18;3.90;;;;;;;12.14;88.46;96236.84;10495535;28;20243;-76
2022/01/02 13:38:04;;;;;;;9.65;4.72;;;;;;;12.23;85.98;96240.22;10497509;28;20254;-76
2022/01/02 13:43:07;;;;;;;10.95;2.40;;;;;;;12.31;84.12;96238.34;10496648;28;20556;-76
2022/01/02 13:48:29;;;;;;;10.45;2.40;;;;;;;12.03;85.08;96259.09;10497623;28;20237;-76
2022/01/02 13:53:35;;;;;;;9.57;3.10;;;;;;;11.79;86.40;96244.31;10496050;28;20238;-76
2022/01/02 13:58:43;;;;;;;7.53;2.55;;;;;;;11.64;87.12;96240.81;10497159;28;20266;-76
2022/01/02 14:03:43;;;;;;;7.17;2.60;;;;;;;11.55;86.14;96203.34;10478241;28;20705;-76
2022/01/02 14:08:46;;;;;;;10.45;2.80;;;;;;;11.74;80.14;96137.25;10478594;28;20184;-76
2022/01/02 14:13:50;;;;;;;6.18;3.20;;;;;;;11.67;80.41;96123.22;10496106;28;20258;-76
2022/01/02 14:18:50;;;;;;;9.35;2.90;;;;;;;11.37;79.87;96120.50;10495934;28;20188;-76
2022/01/02 14:23:50;;;;;;;8.07;3.05;;;;;;;11.27;79.48;96109.47;10495505;28;20187;-77
2022/01/02 14:28:54;;;;;;;10.18;2.90;;;;;;;11.21;77.43;96086.56;10495042;28;20249;-76
2022/01/02 14:33:55;;;;;;;7.93;3.07;;;;;;;11.57;72.98;96012.47;10476215;28;20222;-77
2022/01/02 14:38:56;;;;;;;4.57;2.67;;;;;;;11.52;72.33;95988.59;10491501;28;20241;-76
2022/01/02 14:43:56;;;;;;;5.20;2.90;;;;;;;11.48;70.73;95956.66;10494968;28;20221;-76
2022/01/02 14:48:56;;;;;;;3.60;1.90;;;;;;;12.04;65.56;95895.03;10495528;28;20192;-76
2022/01/02 14:53:57;;;;;;;2.58;1.90;;;;;;;12.23;63.54;95849.75;10494182;28;20223;-76
2022/01/02 14:58:58;;;;;;;9.25;2.05;;;;;;;12.29;62.95;95863.94;10477167;28;20620;-76
2022/01/02 15:03:58;;;;;;;2.63;1.88;;;;;;;12.27;63.07;95855.44;10494216;28;20194;-76
2022/01/02 15:09:00;;;;;;;1.42;1.25;;;;;;;12.49;61.70;95856.25;10494601;28;20203;-76
2022/01/02 15:14:00;;;;;;;2.30;1.90;;;;;;;12.70;61.08;95844.88;10494463;28;20219;-75
2022/01/02 15:19:01;;;;;;;5.07;1.73;;;;;;;12.54;62.74;95874.88;10490669;28;20202;-77
2022/01/02 15:24:01;;;;;;;8.40;2.38;;;;;;;12.61;62.30;95872.31;10529764;28;20186;-77
2022/01/02 15:29:02;;;;;;;3.10;1.63;;;;;;;12.58;61.89;95876.13;10535019;28;20649;-77
2022/01/02 15:34:02;;;;;;;3.00;2.25;;;;;;;12.43;62.21;95862.25;10534740;28;20258;-77
2022/01/02 15:39:03;;;;;;;5.82;2.75;;;;;;;12.40;61.61;95839.78;10535589;28;20238;-77
2022/01/02 15:44:03;;;;;;;2.20;1.65;;;;;;;12.23;61.74;95854.19;10524133;28;20190;-77
2022/01/02 15:49:04;;;;;;;3.80;2.10;;;;;;;12.22;61.77;95863.91;10543656;28;20631;-76
2022/01/02 15:54:04;;;;;;;3.42;2.35;;;;;;;12.05;62.84;95896.63;10525429;28;20616;-77
2022/01/02 15:59:04;;;;;;;6.30;2.50;;;;;;;12.11;62.99;95917.72;10543582;28;20549;-77
2022/01/02 16:04:05;;;;;;;5.28;2.72;;;;;;;11.90;65.44;95959.66;10525049;28;20555;-77
2022/01/02 16:09:07;;;;;;;7.15;2.38;;;;;;;11.95;65.63;95971.22;10542916;28;20194;-77
2022/01/02 16:14:07;;;;;;;6.28;2.03;;;;;;;11.81;66.44;95971.22;10525433;28;20698;-77
2022/01/02 16:19:08;;;;;;;5.25;2.30;;;;;;;11.63;67.13;95988.16;10542519;28;20237;-77
2022/01/02 16:24:08;;;;;;;5.63;2.22;;;;;;;11.69;66.90;95978.75;10542627;28;20193;-77
2022/01/02 16:29:09;;;;;;;3.35;2.28;;;;;;;11.56;67.83;96010.84;10532015;28;20635;-77
2022/01/02 16:34:09;;;;;;;6.10;2.30;;;;;;;11.38;68.77;96027.75;10517778;28;20228;-78
2022/01/02 16:39:09;;;;;;;2.67;2.17;;;;;;;11.22;69.68;96033.97;10524072;28;20321;-76
2022/01/02 16:44:10;;;;;;;3.80;2.15;;;;;;;11.16;69.95;96050.38;10523180;28;20190;-76
2022/01/02 16:49:10;;;;;;;5.00;2.28;;;;;;;11.19;69.81;96055.28;10540950;28;20339;-76
2022/01/02 16:54:10;;;;;;;8.38;2.72;;;;;;;10.92;71.23;96063.66;10540179;28;20219;-77
2022/01/02 16:59:12;;;;;;;5.97;2.97;;;;;;;10.79;71.50;96087.84;10541086;28;20594;-76
2022/01/02 17:04:13;;;;;;;9.63;5.03;;;;;;;10.65;72.71;96121.63;10522541;28;20623;-76
2022/01/02 17:09:13;;;;;;;5.97;3.60;;;;;;;10.65;72.93;96144.41;10541064;28;20273;-77
2022/01/02 17:14:13;;;;;;;5.07;2.67;;;;;;;10.52;74.27;96137.06;10505658;28;20222;-77
2022/01/02 17:19:14;;;;;;;5.00;2.80;;;;;;;10.53;74.86;96162.28;10539425;28;20213;-77
2022/01/02 17:24:14;;;;;;;4.53;2.70;;;;;;;10.51;75.03;96195.69;10522451;28;20555;-77
2022/01/02 17:29:15;;;;;;;7.57;2.67;;;;;;;10.33;76.36;96212.41;10539747;28;20194;-77
2022/01/02 17:34:15;;;;;;;5.57;2.53;;;;;;;10.07;77.23;96214.41;10539890;28;20577;-77
2022/01/02 17:39:16;;;;;;;5.53;2.90;;;;;;;9.83;77.95;96221.28;10539368;28;20226;-77
2022/01/02 17:44:16;;;;;;;4.43;2.80;;;;;;;9.73;79.07;96234.53;10538808;28;20186;-76
2022/01/02 17:49:18;;;;;;;9.87;4.37;;;;;;;9.58;79.40;96236.97;10521267;28;20719;-76
2022/01/02 17:54:19;;;;;;;4.33;3.13;;;;;;;9.49;80.58;96258.84;10538914;28;20309;-77
2022/01/02 17:59:20;;;;;;;3.83;3.03;;;;;;;9.46;80.75;96225.19;10538503;28;20182;-76
2022/01/02 18:04:21;;;;;;;9.07;4.33;;;;;;;9.38;81.12;96228.59;10538560;28;20186;-77
2022/01/02 18:09:25;;;;;;;5.00;3.10;;;;;;;9.36;81.64;96254.09;10539045;28;20284;-77
2022/01/02 18:14:26;;;;;;;6.63;4.20;;;;;;;9.19;82.41;96242.78;10537378;28;20223;-77
2022/01/02 18:19:26;;;;;;;6.57;3.13;;;;;;;9.14;82.77;96234.59;10537688;28;20190;-76
2022/01/02 18:24:27;;;;;;;4.37;3.00;;;;;;;9.06;83.37;96242.41;10537615;28;20195;-77
2022/01/02 18:29:28;;;;;;;3.57;2.70;;;;;;;9.07;83.78;96229.19;10537136;28;20198;-76
2022/01/02 18:34:28;;;;;;;3.73;2.80;;;;;;;8.97;84.26;96218.06;10537644;28;20277;-77
2022/01/02 18:39:28;;;;;;;4.33;3.07;;;;;;;8.87;84.76;96205.13;10517713;28;20280;-77
2022/01/02 18:44:29;;;;;;;5.10;2.97;;;;;;;8.80;85.30;96185.84;10534883;28;20191;-77
2022/01/02 18:49:29;;;;;;;6.73;2.97;;;;;;;8.75;85.83;96175.88;10535328;28;20202;-77
2022/01/02 18:54:30;;;;;;;7.37;2.60;;;;;;;8.70;86.85;96159.06;10535940;28;20672;-76
2022/01/02 18:59:31;;;;;;;3.17;2.60;;;;;;;8.64;87.38;96163.13;10534854;28;20662;-75
2022/01/02 19:04:31;;;;;;;4.00;2.53;;;;;;;8.59;88.08;96138.44;10517494;28;20230;-76
2022/01/02 19:09:31;;;;;;;4.83;2.37;;;;;;;8.64;88.00;96163.13;10535614;28;20589;-76
2022/01/02 19:14:32;;;;;;;4.53;2.80;;;;;;;8.73;88.16;96166.56;10534335;28;20631;-76
2022/01/02 19:19:32;;;;;;;3.63;2.60;;;;;;;8.71;88.33;96171.13;10510119;28;20743;-76
2022/01/02 19:24:33;;;;;;;4.17;2.77;;;;;;;8.79;88.23;96165.94;10509889;28;20641;-77
2022/01/02 19:29:33;;;;;;;5.07;2.67;;;;;;;8.86;88.18;96173.94;10511083;28;20530;-77
2022/01/02 19:34:33;;;;;;;4.13;2.30;;;;;;;8.85;88.25;96167.91;10533612;28;20280;-76
2022/01/02 19:39:34;;;;;;;6.60;3.33;;;;;;;8.85;88.24;96169.69;10532864;28;20237;-76
2022/01/02 19:44:36;;;;;;;4.77;2.63;;;;;;;8.89;88.04;96184.06;10533326;28;20270;-77
2022/01/02 19:49:37;;;;;;;4.90;3.20;;;;;;;8.91;88.17;96182.13;10516187;28;20191;-76
2022/01/02 19:54:38;;;;;;;5.53;2.57;;;;;;;8.98;87.91;96187.53;10518284;28;20207;-78
2022/01/02 19:59:38;;;;;;;6.13;2.60;;;;;;;8.86;89.14;96190.44;10509669;28;20230;-76
2022/01/02 20:04:39;;;;;;;6.50;2.50;;;;;;;8.83;89.64;96180.31;10509607;28;20202;-76
2022/01/02 20:09:39;;;;;;;5.37;3.20;;;;;;;8.74;90.37;96176.03;10509656;28;20187;-77
2022/01/02 20:14:40;;;;;;;6.73;2.73;;;;;;;8.66;91.01;96176.00;10510792;28;20195;-76
2022/01/02 20:19:40;;;;;;;4.87;2.50;;;;;;;8.48;92.79;96181.31;10513642;28;20675;-76
2022/01/02 20:24:41;;;;;;;5.00;2.83;;;;;;;8.35;93.97;96177.31;10532723;28;20283;-76
2022/01/02 20:29:41;;;;;;;3.97;1.90;;;;;;;8.43;94.48;96173.91;10537792;28;20190;-77
2022/01/02 20:34:41;;;;;;;5.33;2.57;;;;;;;8.50;95.14;96166.31;10540866;28;20564;-76
2022/01/02 20:39:42;;;;;;;3.87;2.20;;;;;;;8.53;94.74;96176.44;10538423;28;20241;-77
2022/01/02 20:44:43;;;;;;;4.30;1.83;;;;;;;8.50;95.60;96169.75;10522541;28;20206;-76
2022/01/02 20:49:44;;;;;;;3.83;2.43;;;;;;;8.56;95.53;96165.69;10540169;28;20728;-76
2022/01/02 20:54:44;;;;;;;8.00;2.70;;;;;;;8.62;95.84;96177.28;10538838;28;20661;-77
2022/01/02 20:59:45;;;;;;;5.67;2.13;;;;;;;8.79;94.75;96162.50;10539949;28;20197;-77
2022/01/02 21:04:48;;;;;;;2.07;1.67;;;;;;;8.94;93.67;96163.50;10539842;28;20554;-76
2022/01/02 21:09:48;;;;;;;3.23;2.00;;;;;;;8.96;93.52;96145.06;10521661;28;20194;-75
2022/01/02 21:14:49;;;;;;;4.87;2.17;;;;;;;9.02;93.36;96147.03;10539420;28;20193;-75
2022/01/02 21:19:50;;;;;;;2.80;2.10;;;;;;;9.05;92.50;96133.66;10539322;28;20182;-75
2022/01/02 21:24:50;;;;;;;3.47;2.00;;;;;;;9.06;93.20;96143.13;10538625;28;20202;-75
2022/01/02 21:29:51;;;;;;;5.73;2.87;;;;;;;9.01;94.28;96129.75;10538847;28;20248;-76
2022/01/02 21:34:51;;;;;;;4.17;1.90;;;;;;;8.99;95.14;96136.91;10538563;28;20194;-75
2022/01/02 21:39:52;;;;;;;4.07;1.93;;;;;;;8.99;95.93;96131.69;10536968;28;20242;-77
2022/01/02 21:44:53;;;;;;;3.50;1.83;;;;;;;8.96;95.97;96119.78;10537821;28;20221;-75
2022/01/02 21:49:53;;;;;;;2.77;1.77;;;;;;;8.87;96.46;96118.13;10519472;28;20225;-76
2022/01/02 21:54:54;;;;;;;4.33;2.23;;;;;;;8.88;96.01;96104.91;10537630;28;20727;-75
2022/01/02 21:59:55;;;;;;;5.47;1.70;;;;;;;8.80;96.55;96107.50;10539021;28;20213;-75
2022/01/02 22:04:55;;;;;;;6.97;1.93;;;;;;;8.70;97.38;96096.38;10537955;28;20678;-75
2022/01/02 22:09:56;;;;;;;5.93;2.00;;;;;;;8.68;97.53;96090.50;10519915;28;20273;-75
2022/01/02 22:15:00;;;;;;;2.43;1.80;;;;;;;8.66;97.53;96079.41;10520094;28;20295;-74
2022/01/02 22:20:01;;;;;;;5.27;1.70;;;;;;;8.75;96.05;96079.25;10537693;28;20213;-74
2022/01/02 22:25:03;;;;;;;3.50;1.73;;;;;;;8.67;96.08;96081.03;10538002;28;20192;-74
2022/01/02 22:30:06;;;;;;;3.70;2.07;;;;;;;8.72;95.78;96083.97;10537647;28;20237;-74
2022/01/02 22:35:09;;;;;;;3.30;1.63;;;;;;;8.79;93.82;96073.69;10537666;28;20213;-74
2022/01/02 22:40:09;;;;;;;3.97;1.77;;;;;;;8.69;94.74;96071.25;10519405;28;20227;-74
2022/01/02 22:45:10;;;;;;;4.40;1.83;;;;;;;8.64;94.80;96074.34;10536662;28;20537;-76
2022/01/02 22:50:11;;;;;;;3.87;1.90;;;;;;;8.68;94.92;96075.66;10535831;28;20234;-74
2022/01/02 22:55:15;;;;;;;2.23;1.60;;;;;;;8.63;95.67;96056.22;10536346;28;20210;-75
2022/01/02 23:00:37;;;;;;;3.70;2.17;;;;;;;8.71;96.20;96040.56;10537089;28;20189;-76
2022/01/02 23:05:38;;;;;;;3.40;1.70;;;;;;;8.62;97.37;96036.31;10536123;28;20703;-75
2022/01/02 23:10:38;;;;;;;4.80;1.87;;;;;;;8.62;97.77;96037.13;10536485;28;20226;-76
2022/01/02 23:15:40;;;;;;;4.53;2.03;;;;;;;8.67;97.28;96057.53;10536474;28;20191;-75
2022/01/02 23:20:42;;;;;;;5.77;2.50;;;;;;;8.84;97.25;96056.56;10536002;28;20214;-76
2022/01/02 23:25:46;;;;;;;4.03;2.00;;;;;;;8.91;96.63;96061.97;10518105;28;20182;-76
2022/01/02 23:30:46;;;;;;;3.80;1.90;;;;;;;8.90;96.60;96045.47;10535286;28;20643;-76
2022/01/02 23:35:46;;;;;;;5.23;2.30;;;;;;;8.86;96.91;96045.97;10535364;28;20190;-76